createdAt,value
2018-05-24T00:00:39.321Z,1.80
2018-05-24T00:03:06.145Z,2.30
2018-05-24T00:05:32.699Z,1.93
2018-05-24T00:07:59.481Z,2.27
2018-05-24T00:10:26.146Z,2.00
2018-05-24T00:12:52.747Z,2.33
2018-05-24T00:15:19.551Z,2.03
2018-05-24T00:17:46.136Z,1.93
2018-05-24T00:20:12.783Z,1.87
2018-05-24T00:22:40.256Z,2.37
2018-05-24T00:25:06.870Z,2.03
2018-05-24T00:27:34.212Z,2.50
2018-05-24T00:30:00.793Z,2.13
2018-05-24T00:32:27.631Z,2.10
2018-05-24T00:34:54.466Z,2.23
2018-05-24T00:37:21.783Z,2.10
2018-05-24T00:39:48.868Z,2.10
2018-05-24T00:42:16.177Z,1.93
2018-05-24T00:44:42.761Z,1.93
2018-05-24T00:47:09.717Z,2.03
2018-05-24T00:49:36.311Z,2.07
2018-05-24T00:52:02.984Z,2.17
2018-05-24T00:54:29.584Z,1.97
2018-05-24T00:56:56.160Z,2.10
2018-05-24T00:59:22.786Z,2.10
2018-05-24T01:01:49.421Z,1.87
2018-05-24T01:04:17.118Z,2.07
2018-05-24T01:06:43.660Z,1.80
2018-05-24T01:09:10.431Z,2.07
2018-05-24T01:11:37.027Z,1.93
2018-05-24T01:14:03.623Z,1.80
2018-05-24T01:16:30.239Z,2.10
2018-05-24T01:18:56.836Z,2.33
2018-05-24T01:21:23.414Z,2.20
2018-05-24T01:23:49.951Z,1.97
2018-05-24T01:26:17.316Z,2.00
2018-05-24T01:28:43.954Z,2.00
2018-05-24T01:31:11.295Z,2.10
2018-05-24T01:33:37.868Z,2.27
2018-05-24T01:36:04.463Z,2.23
2018-05-24T01:38:31.854Z,2.10
2018-05-24T01:40:59.147Z,1.87
2018-05-24T01:43:26.182Z,2.27
2018-05-24T01:45:52.717Z,2.70
2018-05-24T01:48:19.251Z,2.20
2018-05-24T01:50:45.841Z,1.97
2018-05-24T01:53:13.173Z,2.00
2018-05-24T01:55:39.721Z,2.20
2018-05-24T01:58:06.350Z,2.27
2018-05-24T02:00:32.894Z,2.37
2018-05-24T02:02:59.481Z,1.80
2018-05-24T02:05:26.580Z,2.57
2018-05-24T02:07:53.880Z,2.27
2018-05-24T02:10:20.430Z,2.30
2018-05-24T02:12:47.037Z,2.20
2018-05-24T02:15:13.625Z,2.23
2018-05-24T02:17:40.307Z,2.40
2018-05-24T02:20:06.905Z,2.10
2018-05-24T02:22:33.480Z,2.00
2018-05-24T02:25:00.038Z,2.23
2018-05-24T02:27:26.723Z,2.20
2018-05-24T02:29:53.289Z,2.00
2018-05-24T02:32:20.629Z,2.63
2018-05-24T02:34:47.911Z,2.17
2018-05-24T02:37:14.609Z,2.20
2018-05-24T02:39:41.345Z,2.20
2018-05-24T02:42:07.984Z,2.50
2018-05-24T02:44:35.295Z,2.33
2018-05-24T02:47:01.970Z,2.00
2018-05-24T02:49:28.534Z,2.30
2018-05-24T02:51:55.874Z,2.37
2018-05-24T02:54:22.535Z,2.60
2018-05-24T02:56:49.151Z,2.40
2018-05-24T02:59:15.721Z,2.50
2018-05-24T03:01:42.477Z,2.30
2018-05-24T03:04:09.754Z,2.60
2018-05-24T03:06:36.313Z,2.30
2018-05-24T03:09:04.641Z,2.40
2018-05-24T03:11:31.353Z,2.37
2018-05-24T03:13:58.774Z,2.23
2018-05-24T03:16:25.326Z,2.67
2018-05-24T03:18:51.882Z,2.30
2018-05-24T03:21:18.534Z,2.50
2018-05-24T03:23:45.070Z,2.97
2018-05-24T03:26:11.641Z,2.40
2018-05-24T03:28:38.355Z,2.50
2018-05-24T03:31:04.897Z,2.27
2018-05-24T03:33:31.443Z,2.87
2018-05-24T03:35:58.050Z,2.20
2018-05-24T03:38:24.660Z,2.57
2018-05-24T03:40:51.993Z,2.57
2018-05-24T03:43:18.542Z,2.60
2018-05-24T03:45:45.533Z,2.43
2018-05-24T03:48:12.117Z,2.13
2018-05-24T03:50:38.781Z,2.40
2018-05-24T03:53:06.208Z,2.57
2018-05-24T03:55:32.823Z,2.40
2018-05-24T03:57:59.438Z,2.60
2018-05-24T04:00:38.233Z,2.53
2018-05-24T04:03:17.330Z,2.23
2018-05-24T04:05:44.747Z,2.70
2018-05-24T04:08:11.244Z,2.40
2018-05-24T04:10:37.890Z,2.57
2018-05-24T04:13:04.458Z,2.80
2018-05-24T04:15:31.056Z,2.60
2018-05-24T04:17:57.570Z,2.70
2018-05-24T04:20:24.609Z,2.57
2018-05-24T04:22:51.231Z,2.70
2018-05-24T04:25:17.770Z,2.70
2018-05-24T04:27:44.457Z,3.50
2018-05-24T04:30:11.021Z,3.23
2018-05-24T04:32:37.575Z,2.87
2018-05-24T04:35:04.598Z,2.60
2018-05-24T04:37:31.187Z,2.60
2018-05-24T04:39:57.754Z,2.77
2018-05-24T04:42:24.523Z,2.90
2018-05-24T04:44:51.197Z,2.80
2018-05-24T04:47:17.809Z,2.90
2018-05-24T04:49:44.381Z,3.07
2018-05-24T04:52:10.951Z,3.10
2018-05-24T04:54:37.548Z,2.83
2018-05-24T04:57:04.122Z,2.87
2018-05-24T04:59:30.694Z,2.93
2018-05-24T05:01:57.478Z,3.07
2018-05-24T05:04:24.841Z,3.00
2018-05-24T05:06:52.171Z,3.47
2018-05-24T05:09:19.473Z,2.80
2018-05-24T05:11:46.016Z,3.07
2018-05-24T05:14:14.802Z,2.90
2018-05-24T05:16:41.520Z,3.30
2018-05-24T05:19:08.047Z,3.27
2018-05-24T05:21:34.618Z,2.90
2018-05-24T05:24:01.212Z,3.13
2018-05-24T05:26:28.674Z,2.90
2018-05-24T05:28:55.581Z,3.17
2018-05-24T05:31:22.144Z,2.83
2018-05-24T05:33:49.505Z,3.33
2018-05-24T05:36:16.821Z,3.10
2018-05-24T05:38:43.734Z,3.67
2018-05-24T05:41:10.275Z,3.50
2018-05-24T05:43:36.837Z,3.20
2018-05-24T05:46:03.413Z,3.47
2018-05-24T05:48:30.713Z,3.70
2018-05-24T05:50:57.278Z,2.97
2018-05-24T05:53:23.853Z,3.10
2018-05-24T05:55:50.676Z,3.20
2018-05-24T05:58:17.238Z,3.40
2018-05-24T06:00:43.764Z,3.73
2018-05-24T06:03:10.355Z,3.93
2018-05-24T06:05:36.902Z,3.37
2018-05-24T06:08:04.215Z,3.50
2018-05-24T06:10:30.762Z,3.30
2018-05-24T06:12:57.378Z,3.27
2018-05-24T06:15:24.037Z,3.37
2018-05-24T06:17:50.533Z,3.70
2018-05-24T06:20:17.103Z,3.73
2018-05-24T06:22:43.752Z,3.97
2018-05-24T06:25:10.308Z,3.90
2018-05-24T06:27:36.871Z,3.70
2018-05-24T06:30:03.500Z,3.77
2018-05-24T06:32:30.872Z,3.37
2018-05-24T06:34:57.426Z,3.67
2018-05-24T06:37:23.955Z,3.73
2018-05-24T06:39:50.542Z,3.40
2018-05-24T06:42:17.224Z,3.80
2018-05-24T06:44:43.807Z,3.87
2018-05-24T06:47:10.372Z,3.93
2018-05-24T06:49:37.682Z,3.90
2018-05-24T06:52:04.254Z,3.93
2018-05-24T06:54:31.106Z,4.00
2018-05-24T06:56:58.396Z,3.70
2018-05-24T06:59:25.353Z,4.03
2018-05-24T07:01:52.011Z,4.37
2018-05-24T07:04:18.612Z,3.90
2018-05-24T07:06:45.205Z,3.83
2018-05-24T07:09:11.931Z,4.07
2018-05-24T07:11:38.544Z,4.00
2018-05-24T07:14:05.080Z,3.90
2018-05-24T07:16:31.658Z,3.90
2018-05-24T07:18:58.951Z,4.43
2018-05-24T07:21:25.699Z,4.60
2018-05-24T07:23:52.262Z,4.17
2018-05-24T07:26:18.825Z,4.27
2018-05-24T07:28:46.621Z,4.37
2018-05-24T07:31:13.180Z,4.00
2018-05-24T07:33:39.729Z,4.43
2018-05-24T07:36:06.364Z,4.83
2018-05-24T07:38:32.905Z,4.90
2018-05-24T07:40:59.572Z,4.93
2018-05-24T07:43:26.911Z,4.13
2018-05-24T07:45:53.564Z,4.23
2018-05-24T07:48:20.131Z,4.77
2018-05-24T07:50:46.705Z,4.73
2018-05-24T07:53:13.347Z,5.03
2018-05-24T07:55:39.883Z,4.60
2018-05-24T07:58:07.220Z,4.53
2018-05-24T08:00:33.817Z,4.27
2018-05-24T08:03:00.424Z,4.87
2018-05-24T08:05:27.178Z,5.07
2018-05-24T08:07:53.718Z,4.80
2018-05-24T08:10:20.987Z,4.10
2018-05-24T08:12:47.572Z,5.00
2018-05-24T08:15:14.206Z,4.57
2018-05-24T08:17:40.751Z,5.10
2018-05-24T08:20:07.303Z,4.40
2018-05-24T08:22:34.444Z,4.73
2018-05-24T08:25:00.974Z,4.83
2018-05-24T08:27:28.275Z,4.60
2018-05-24T08:29:54.896Z,4.20
2018-05-24T08:32:21.451Z,4.87
2018-05-24T08:34:47.993Z,4.40
2018-05-24T08:37:14.557Z,4.37
2018-05-24T08:39:41.134Z,4.90
2018-05-24T08:42:08.916Z,4.43
2018-05-24T08:44:35.469Z,4.07
2018-05-24T08:47:02.103Z,4.37
2018-05-24T08:49:29.373Z,4.23
2018-05-24T08:51:55.952Z,4.87
2018-05-24T08:54:23.315Z,4.70
2018-05-24T08:56:49.879Z,4.40
2018-05-24T08:59:16.419Z,4.53
2018-05-24T09:01:43.077Z,4.40
2018-05-24T09:04:09.826Z,4.10
2018-05-24T09:06:36.495Z,4.40
2018-05-24T09:09:03.218Z,4.50
2018-05-24T09:11:30.589Z,4.30
2018-05-24T09:13:57.943Z,4.17
2018-05-24T09:16:24.683Z,4.17
2018-05-24T09:18:51.996Z,4.20
2018-05-24T09:21:18.667Z,3.93
2018-05-24T09:23:45.227Z,4.17
2018-05-24T09:26:11.842Z,3.70
2018-05-24T09:28:38.411Z,4.10
2018-05-24T09:31:05.454Z,3.60
2018-05-24T09:33:32.012Z,3.53
2018-05-24T09:35:58.568Z,3.73
2018-05-24T09:38:25.927Z,3.60
2018-05-24T09:40:52.502Z,3.77
2018-05-24T09:43:19.115Z,4.40
2018-05-24T09:45:45.670Z,4.50
2018-05-24T09:48:12.250Z,3.87
2018-05-24T09:50:38.831Z,3.80
2018-05-24T09:53:05.354Z,4.10
2018-05-24T09:55:31.962Z,4.13
2018-05-24T09:57:58.535Z,3.77
2018-05-24T10:00:26.004Z,3.57
2018-05-24T10:02:53.329Z,3.90
2018-05-24T10:05:19.912Z,3.67
2018-05-24T10:07:46.489Z,3.83
2018-05-24T10:10:13.049Z,3.67
2018-05-24T10:12:40.339Z,3.77
2018-05-24T10:15:06.937Z,4.07
2018-05-24T10:17:34.239Z,3.27
2018-05-24T10:20:00.805Z,3.80
2018-05-24T10:22:27.390Z,3.60
2018-05-24T10:24:54.084Z,3.17
2018-05-24T10:27:20.651Z,3.10
2018-05-24T10:29:47.956Z,3.70
2018-05-24T10:32:14.522Z,4.00
2018-05-24T10:34:41.078Z,3.63
2018-05-24T10:37:08.410Z,3.40
2018-05-24T10:39:35.786Z,3.67
2018-05-24T10:42:03.245Z,3.57
2018-05-24T10:44:30.546Z,3.57
2018-05-24T10:46:57.094Z,3.70
2018-05-24T10:49:23.642Z,3.70
2018-05-24T10:51:50.193Z,3.60
2018-05-24T10:54:17.792Z,3.50
2018-05-24T10:56:44.600Z,3.93
2018-05-24T10:59:11.252Z,3.20
2018-05-24T11:01:38.706Z,3.33
2018-05-24T11:04:06.367Z,3.50
2018-05-24T11:06:33.824Z,3.63
2018-05-24T11:09:01.280Z,3.63
2018-05-24T11:11:28.226Z,3.63
2018-05-24T11:13:55.579Z,4.13
2018-05-24T11:16:23.037Z,4.20
2018-05-24T11:18:50.491Z,4.13
2018-05-24T11:21:17.850Z,3.70
2018-05-24T11:23:44.587Z,3.57
2018-05-24T11:26:11.940Z,3.73
2018-05-24T11:28:39.296Z,3.87
2018-05-24T11:31:05.932Z,3.60
2018-05-24T11:33:32.573Z,3.20
2018-05-24T11:36:00.133Z,3.13
2018-05-24T11:38:26.871Z,3.27
2018-05-24T11:40:54.533Z,3.53
2018-05-24T11:43:22.414Z,3.33
2018-05-24T11:45:49.034Z,3.37
2018-05-24T11:48:16.389Z,2.97
2018-05-24T11:50:43.742Z,3.43
2018-05-24T11:53:11.102Z,3.53
2018-05-24T11:55:38.413Z,3.37
2018-05-24T11:58:04.976Z,3.23
2018-05-24T12:00:31.514Z,3.43
2018-05-24T12:02:58.946Z,3.73
2018-05-24T12:05:26.593Z,3.80
2018-05-24T12:07:54.390Z,3.73
2018-05-24T12:10:20.962Z,3.50
2018-05-24T12:12:47.597Z,4.10
2018-05-24T12:15:14.164Z,3.20
2018-05-24T12:17:40.737Z,3.50
2018-05-24T12:20:08.198Z,3.50
2018-05-24T12:22:35.490Z,4.00
2018-05-24T12:25:02.155Z,3.67
2018-05-24T12:27:29.648Z,3.87
2018-05-24T12:29:56.418Z,3.87
2018-05-24T12:32:22.965Z,3.90
2018-05-24T12:34:49.519Z,4.43
2018-05-24T12:37:16.092Z,3.97
2018-05-24T12:39:42.655Z,4.20
2018-05-24T12:42:09.393Z,4.00
2018-05-24T12:44:35.927Z,4.30
2018-05-24T12:47:02.447Z,4.73
2018-05-24T12:49:29.754Z,3.93
2018-05-24T12:51:57.018Z,4.27
2018-05-24T12:54:24.103Z,4.00
2018-05-24T12:56:51.404Z,3.60
2018-05-24T12:59:17.943Z,4.17
2018-05-24T13:01:44.520Z,4.30
2018-05-24T13:04:11.268Z,4.10
2018-05-24T13:06:37.786Z,4.90
2018-05-24T13:09:05.313Z,3.97
2018-05-24T13:11:32.606Z,4.40
2018-05-24T13:14:00.043Z,4.83
2018-05-24T13:16:26.595Z,5.30
2018-05-24T13:18:53.914Z,4.67
2018-05-24T13:21:20.441Z,5.00
2018-05-24T13:23:47.038Z,5.23
2018-05-24T13:26:15.033Z,5.70
2018-05-24T13:28:42.329Z,4.87
2018-05-24T13:31:08.902Z,5.27
2018-05-24T13:33:35.434Z,5.43
2018-05-24T13:36:02.042Z,5.30
2018-05-24T13:38:28.546Z,5.37
2018-05-24T13:40:55.158Z,5.37
2018-05-24T13:43:21.744Z,5.07
2018-05-24T13:45:48.233Z,5.57
2018-05-24T13:48:14.751Z,5.40
2018-05-24T13:50:41.327Z,5.30
2018-05-24T13:53:07.925Z,5.43
2018-05-24T13:55:34.441Z,5.20
2018-05-24T13:58:00.970Z,5.17
2018-05-24T14:00:30.090Z,5.10
2018-05-24T14:02:57.151Z,5.47
2018-05-24T14:05:23.715Z,5.87
2018-05-24T14:07:50.205Z,5.60
2018-05-24T14:10:16.705Z,5.73
2018-05-24T14:12:43.252Z,6.40
2018-05-24T14:15:10.563Z,5.67
2018-05-24T14:17:37.797Z,5.97
2018-05-24T14:20:04.522Z,5.83
2018-05-24T14:22:31.011Z,5.97
2018-05-24T14:24:57.490Z,5.57
2018-05-24T14:27:24.013Z,5.70
2018-05-24T14:29:50.537Z,6.20
2018-05-24T14:32:17.817Z,6.03
2018-05-24T14:34:44.318Z,5.70
2018-05-24T14:37:10.833Z,5.50
2018-05-24T14:39:37.565Z,6.10
2018-05-24T14:42:04.132Z,5.93
2018-05-24T14:44:30.601Z,6.53
2018-05-24T14:46:57.191Z,6.50
2018-05-24T14:49:23.719Z,6.57
2018-05-24T14:51:50.212Z,5.53
2018-05-24T14:54:17.470Z,5.70
2018-05-24T14:56:44.126Z,6.00
2018-05-24T14:59:10.690Z,5.13
2018-05-24T15:01:44.171Z,5.57
2018-05-24T15:04:10.695Z,6.10
2018-05-24T15:06:37.374Z,5.27
2018-05-24T15:09:04.834Z,5.30
2018-05-24T15:11:31.426Z,5.73
2018-05-24T15:13:58.072Z,6.00
2018-05-24T15:16:24.617Z,5.43
2018-05-24T15:18:51.123Z,5.90
2018-05-24T15:21:17.651Z,5.30
2018-05-24T15:23:44.914Z,5.93
2018-05-24T15:26:11.606Z,5.20
2018-05-24T15:28:38.089Z,5.37
2018-05-24T15:31:05.384Z,5.20
2018-05-24T15:33:31.886Z,6.20
2018-05-24T15:35:58.392Z,5.33
2018-05-24T15:38:25.654Z,5.63
2018-05-24T15:40:53.028Z,6.27
2018-05-24T15:43:19.594Z,6.13
2018-05-24T15:45:46.097Z,6.30
2018-05-24T15:48:12.658Z,5.40
2018-05-24T15:50:39.185Z,5.57
2018-05-24T15:53:05.700Z,5.97
2018-05-24T15:55:32.296Z,6.23
2018-05-24T15:57:58.994Z,5.83
2018-05-24T16:00:25.545Z,5.73
2018-05-24T16:02:52.032Z,6.20
2018-05-24T16:05:19.330Z,6.10
2018-05-24T16:07:46.684Z,5.70
2018-05-24T16:10:13.295Z,6.23
2018-05-24T16:12:39.932Z,5.40
2018-05-24T16:15:06.918Z,6.13
2018-05-24T16:17:33.464Z,6.07
2018-05-24T16:20:00.021Z,6.80
2018-05-24T16:22:27.294Z,6.03
2018-05-24T16:24:53.797Z,6.40
2018-05-24T16:27:20.735Z,7.53
2018-05-24T16:29:47.263Z,6.80
2018-05-24T16:32:13.884Z,7.03
2018-05-24T16:34:40.487Z,8.17
2018-05-24T16:37:07.108Z,7.10
2018-05-24T16:39:34.369Z,7.27
2018-05-24T16:42:00.913Z,7.80
2018-05-24T16:44:27.399Z,6.97
2018-05-24T16:46:55.578Z,6.97
2018-05-24T16:49:23.209Z,7.33
2018-05-24T16:51:51.898Z,8.47
2018-05-24T16:54:18.508Z,7.50
2018-05-24T16:56:45.157Z,7.50
2018-05-24T16:59:11.687Z,7.50
2018-05-24T17:01:38.181Z,7.43
2018-05-24T17:04:05.439Z,7.53
2018-05-24T17:06:32.705Z,6.67
2018-05-24T17:08:59.981Z,6.93
2018-05-24T17:11:26.521Z,7.70
2018-05-24T17:13:53.013Z,7.83
2018-05-24T17:16:20.286Z,8.17
2018-05-24T17:18:47.560Z,7.10
2018-05-24T17:21:14.250Z,7.83
2018-05-24T17:23:40.949Z,7.03
2018-05-24T17:26:07.488Z,6.67
2018-05-24T17:28:34.038Z,6.80
2018-05-24T17:31:00.583Z,7.37
2018-05-24T17:33:27.178Z,7.00
2018-05-24T17:35:53.660Z,7.40
2018-05-24T17:38:20.965Z,7.33
2018-05-24T17:40:47.477Z,7.17
2018-05-24T17:43:13.991Z,7.67
2018-05-24T17:45:41.229Z,7.93
2018-05-24T17:48:07.764Z,8.07
2018-05-24T17:50:34.279Z,7.60
2018-05-24T17:53:00.805Z,9.60
2018-05-24T17:55:27.350Z,8.67
2018-05-24T17:57:53.806Z,8.63
2018-05-24T18:00:21.761Z,7.73
2018-05-24T18:02:48.251Z,8.83
2018-05-24T18:05:14.770Z,7.50
2018-05-24T18:07:42.018Z,7.93
2018-05-24T18:10:09.314Z,8.27
2018-05-24T18:12:35.848Z,8.03
2018-05-24T18:15:02.491Z,8.50
2018-05-24T18:17:29.005Z,8.20
2018-05-24T18:19:55.535Z,8.30
2018-05-24T18:22:22.033Z,8.97
2018-05-24T18:24:48.629Z,8.07
2018-05-24T18:27:15.161Z,8.20
2018-05-24T18:29:42.136Z,7.87
2018-05-24T18:32:08.650Z,7.73
2018-05-24T18:34:35.141Z,7.07
2018-05-24T18:37:02.562Z,7.13
2018-05-24T18:39:29.107Z,8.17
2018-05-24T18:41:55.706Z,7.30
2018-05-24T18:44:22.212Z,7.33
2018-05-24T18:46:49.086Z,7.73
2018-05-24T18:49:15.621Z,7.40
2018-05-24T18:51:42.257Z,8.20
2018-05-24T18:54:08.896Z,8.33
2018-05-24T18:56:35.424Z,8.53
2018-05-24T18:59:01.960Z,8.20
2018-05-24T19:01:28.601Z,7.43
2018-05-24T19:03:55.115Z,7.87
2018-05-24T19:06:21.595Z,7.60
2018-05-24T19:08:48.346Z,7.17
2018-05-24T19:11:15.631Z,7.87
2018-05-24T19:13:42.201Z,8.03
2018-05-24T19:16:08.722Z,7.43
2018-05-24T19:18:35.255Z,7.73
2018-05-24T19:21:01.877Z,7.00
2018-05-24T19:23:28.364Z,6.83
2018-05-24T19:25:54.859Z,8.03
2018-05-24T19:28:21.511Z,8.30
2018-05-24T19:30:48.042Z,7.73
2018-05-24T19:33:14.714Z,8.00
2018-05-24T19:35:41.337Z,7.40
2018-05-24T19:38:09.331Z,6.90
2018-05-24T19:40:36.261Z,7.50
2018-05-24T19:43:04.252Z,6.83
2018-05-24T19:45:31.549Z,7.20
2018-05-24T19:47:58.485Z,6.53
2018-05-24T19:50:25.057Z,7.57
2018-05-24T19:52:51.586Z,7.27
2018-05-24T19:55:18.071Z,6.63
2018-05-24T19:57:45.082Z,7.40
2018-05-24T20:00:11.587Z,7.90
2018-05-24T20:02:38.915Z,7.60
2018-05-24T20:05:05.610Z,7.17
2018-05-24T20:07:32.115Z,7.80
2018-05-24T20:09:58.642Z,7.07
2018-05-24T20:12:25.171Z,7.37
2018-05-24T20:14:51.678Z,8.03
2018-05-24T20:17:18.935Z,8.30
2018-05-24T20:19:45.509Z,7.93
2018-05-24T20:22:12.174Z,8.23
2018-05-24T20:24:38.674Z,8.60
2018-05-24T20:27:05.166Z,8.13
2018-05-24T20:29:32.453Z,8.97
2018-05-24T20:31:59.773Z,8.47
2018-05-24T20:34:27.075Z,8.33
2018-05-24T20:36:53.635Z,7.90
2018-05-24T20:39:20.142Z,8.63
2018-05-24T20:41:46.647Z,8.50
2018-05-24T20:44:13.314Z,8.57
2018-05-24T20:46:40.364Z,8.60
2018-05-24T20:49:06.893Z,8.80
2018-05-24T20:51:33.392Z,9.37
2018-05-24T20:54:00.075Z,8.90
2018-05-24T20:56:26.604Z,8.67
2018-05-24T20:58:53.098Z,8.93
2018-05-24T21:01:20.364Z,9.47
2018-05-24T21:03:46.896Z,9.27
2018-05-24T21:06:13.461Z,8.30
2018-05-24T21:08:39.984Z,8.53
2018-05-24T21:11:06.583Z,9.33
2018-05-24T21:13:33.977Z,8.90
2018-05-24T21:16:00.545Z,10.00
2018-05-24T21:18:27.049Z,8.67
2018-05-24T21:20:55.078Z,9.70
2018-05-24T21:23:22.330Z,10.03
2018-05-24T21:25:49.354Z,9.33
2018-05-24T21:28:15.848Z,9.80
2018-05-24T21:30:42.338Z,9.83
2018-05-24T21:33:09.718Z,10.20
2018-05-24T21:35:36.222Z,10.03
2018-05-24T21:38:02.742Z,9.47
2018-05-24T21:40:29.283Z,9.33
2018-05-24T21:42:56.030Z,9.23
2018-05-24T21:45:22.534Z,8.93
2018-05-24T21:47:49.027Z,9.70
2018-05-24T21:50:15.600Z,8.57
2018-05-24T21:52:42.236Z,8.97
2018-05-24T21:55:08.727Z,8.47
2018-05-24T21:57:35.943Z,9.23
2018-05-24T22:00:02.629Z,9.00
2018-05-24T22:02:29.277Z,10.37
2018-05-24T22:04:55.860Z,9.40
2018-05-24T22:07:22.489Z,9.43
2018-05-24T22:09:49.037Z,8.40
2018-05-24T22:12:15.594Z,10.03
2018-05-24T22:14:42.840Z,9.03
2018-05-24T22:17:10.274Z,9.80
2018-05-24T22:19:36.891Z,9.87
2018-05-24T22:22:03.530Z,9.97
2018-05-24T22:24:30.165Z,9.13
2018-05-24T22:26:56.754Z,10.03
2018-05-24T22:29:23.290Z,9.90
2018-05-24T22:31:50.522Z,9.03
2018-05-24T22:34:17.045Z,9.23
2018-05-24T22:36:43.552Z,9.43
2018-05-24T22:39:10.058Z,10.30
2018-05-24T22:41:36.574Z,9.83
2018-05-24T22:44:03.340Z,10.07
2018-05-24T22:46:29.922Z,10.03
2018-05-24T22:48:56.684Z,9.80
2018-05-24T22:51:23.266Z,9.20
2018-05-24T22:53:50.570Z,10.60
2018-05-24T22:56:17.163Z,9.67
2018-05-24T22:58:43.661Z,9.90
2018-05-24T23:01:11.022Z,8.97
2018-05-24T23:03:37.629Z,9.50
2018-05-24T23:06:04.204Z,10.27
2018-05-24T23:08:31.502Z,8.63
2018-05-24T23:10:58.429Z,9.33
2018-05-24T23:13:24.985Z,8.87
2018-05-24T23:15:51.674Z,7.70
2018-05-24T23:18:18.348Z,7.67
2018-05-24T23:20:45.657Z,7.80
2018-05-24T23:23:12.190Z,7.70
2018-05-24T23:25:40.016Z,8.00
2018-05-24T23:28:06.549Z,6.70
2018-05-24T23:30:33.117Z,7.10
2018-05-24T23:32:59.683Z,7.03
2018-05-24T23:35:26.235Z,6.43
2018-05-24T23:37:53.560Z,5.60
2018-05-24T23:40:20.167Z,6.30
2018-05-24T23:42:46.730Z,5.63
2018-05-24T23:45:13.401Z,6.10
2018-05-24T23:47:40.706Z,6.60
2018-05-24T23:50:07.425Z,5.97
2018-05-24T23:52:33.999Z,5.83
2018-05-24T23:55:00.554Z,6.33
2018-05-24T23:57:27.922Z,6.47
2018-05-24T23:59:55.215Z,5.70
